sensor_id;sensor_type;location;lat;lon;timestamp;temperature;humidity
41437;DHT22;27178;49.460;10.850;2023-02-14T00:01:42;6.60;80.00
41437;DHT22;27178;49.460;10.850;2023-02-14T00:04:10;6.60;79.90
41437;DHT22;27178;49.460;10.850;2023-02-14T00:06:39;6.60;80.10
41437;DHT22;27178;49.460;10.850;2023-02-14T00:09:10;6.60;80.20
41437;DHT22;27178;49.460;10.850;2023-02-14T00:11:39;6.60;80.20
41437;DHT22;27178;49.460;10.850;2023-02-14T00:14:09;5.80;79.50
41437;DHT22;27178;49.460;10.850;2023-02-14T00:16:55;6.60;80.20
41437;DHT22;27178;49.460;10.850;2023-02-14T00:19:23;6.60;80.10
41437;DHT22;27178;49.460;10.850;2023-02-14T00:21:52;6.60;80.20
41437;DHT22;27178;49.460;10.850;2023-02-14T00:24:22;6.60;80.30
41437;DHT22;27178;49.460;10.850;2023-02-14T00:26:51;6.60;80.40
41437;DHT22;27178;49.460;10.850;2023-02-14T00:29:22;6.60;80.40
41437;DHT22;27178;49.460;10.850;2023-02-14T00:31:51;6.60;80.30
41437;DHT22;27178;49.460;10.850;2023-02-14T00:34:20;6.60;80.20
41437;DHT22;27178;49.460;10.850;2023-02-14T00:36:48;6.60;80.30
41437;DHT22;27178;49.460;10.850;2023-02-14T00:39:19;6.50;80.20
41437;DHT22;27178;49.460;10.850;2023-02-14T00:41:48;6.60;80.30
41437;DHT22;27178;49.460;10.850;2023-02-14T00:44:17;6.50;80.20
41437;DHT22;27178;49.460;10.850;2023-02-14T00:46:47;6.60;80.40
41437;DHT22;27178;49.460;10.850;2023-02-14T00:49:16;6.50;80.40
41437;DHT22;27178;49.460;10.850;2023-02-14T00:51:44;6.50;80.40
41437;DHT22;27178;49.460;10.850;2023-02-14T00:54:12;6.50;80.30
41437;DHT22;27178;49.460;10.850;2023-02-14T00:56:40;6.50;80.20
41437;DHT22;27178;49.460;10.850;2023-02-14T00:59:09;6.50;80.30
41437;DHT22;27178;49.460;10.850;2023-02-14T01:01:37;6.40;80.20
41437;DHT22;27178;49.460;10.850;2023-02-14T01:04:07;6.50;80.40
41437;DHT22;27178;49.460;10.850;2023-02-14T01:06:36;6.40;80.40
41437;DHT22;27178;49.460;10.850;2023-02-14T01:09:04;6.40;80.40
41437;DHT22;27178;49.460;10.850;2023-02-14T01:11:32;6.40;80.40
41437;DHT22;27178;49.460;10.850;2023-02-14T01:14:01;6.40;80.50
41437;DHT22;27178;49.460;10.850;2023-02-14T01:16:29;6.40;80.40
41437;DHT22;27178;49.460;10.850;2023-02-14T01:18:59;6.40;80.50
41437;DHT22;27178;49.460;10.850;2023-02-14T01:21:30;6.40;80.60
41437;DHT22;27178;49.460;10.850;2023-02-14T01:23:59;6.40;80.70
41437;DHT22;27178;49.460;10.850;2023-02-14T01:26:29;6.40;80.60
41437;DHT22;27178;49.460;10.850;2023-02-14T01:28:58;6.40;80.70
41437;DHT22;27178;49.460;10.850;2023-02-14T01:31:27;6.40;80.70
41437;DHT22;27178;49.460;10.850;2023-02-14T01:33:57;6.40;80.80
41437;DHT22;27178;49.460;10.850;2023-02-14T01:36:27;6.40;80.70
41437;DHT22;27178;49.460;10.850;2023-02-14T01:38:59;6.30;80.80
41437;DHT22;27178;49.460;10.850;2023-02-14T01:41:29;6.40;80.80
41437;DHT22;27178;49.460;10.850;2023-02-14T01:44:00;6.30;80.80
41437;DHT22;27178;49.460;10.850;2023-02-14T01:46:30;6.30;80.80
41437;DHT22;27178;49.460;10.850;2023-02-14T01:49:02;6.30;81.00
41437;DHT22;27178;49.460;10.850;2023-02-14T01:51:34;6.30;81.00
41437;DHT22;27178;49.460;10.850;2023-02-14T01:54:07;6.30;81.00
41437;DHT22;27178;49.460;10.850;2023-02-14T01:56:39;6.30;81.10
41437;DHT22;27178;49.460;10.850;2023-02-14T01:59:11;6.30;81.20
41437;DHT22;27178;49.460;10.850;2023-02-14T02:01:40;6.30;81.30
41437;DHT22;27178;49.460;10.850;2023-02-14T02:04:11;6.30;81.40
41437;DHT22;27178;49.460;10.850;2023-02-14T02:06:44;6.30;81.50
41437;DHT22;27178;49.460;10.850;2023-02-14T02:09:17;6.30;81.60
41437;DHT22;27178;49.460;10.850;2023-02-14T02:11:48;6.30;81.70
41437;DHT22;27178;49.460;10.850;2023-02-14T02:14:19;6.30;82.40
41437;DHT22;27178;49.460;10.850;2023-02-14T02:17:10;6.30;81.70
41437;DHT22;27178;49.460;10.850;2023-02-14T02:23:23;6.20;81.90
41437;DHT22;27178;49.460;10.850;2023-02-14T02:26:26;6.30;81.90
41437;DHT22;27178;49.460;10.850;2023-02-14T02:29:30;6.30;81.90
41437;DHT22;27178;49.460;10.850;2023-02-14T02:35:24;6.30;81.90
41437;DHT22;27178;49.460;10.850;2023-02-14T02:38:09;6.30;81.70
41437;DHT22;27178;49.460;10.850;2023-02-14T02:40:46;6.30;81.80
41437;DHT22;27178;49.460;10.850;2023-02-14T02:43:33;6.30;81.70
41437;DHT22;27178;49.460;10.850;2023-02-14T02:46:07;6.20;81.80
41437;DHT22;27178;49.460;10.850;2023-02-14T02:49:07;6.20;81.70
41437;DHT22;27178;49.460;10.850;2023-02-14T02:51:47;6.30;81.90
41437;DHT22;27178;49.460;10.850;2023-02-14T02:54:53;6.30;82.00
41437;DHT22;27178;49.460;10.850;2023-02-14T02:57:27;6.20;81.90
41437;DHT22;27178;49.460;10.850;2023-02-14T02:59:56;6.20;81.90
41437;DHT22;27178;49.460;10.850;2023-02-14T03:02:29;6.30;81.60
41437;DHT22;27178;49.460;10.850;2023-02-14T03:05:02;6.20;82.00
41437;DHT22;27178;49.460;10.850;2023-02-14T03:07:34;6.20;81.90
41437;DHT22;27178;49.460;10.850;2023-02-14T03:10:07;6.50;82.10
41437;DHT22;27178;49.460;10.850;2023-02-14T03:21:43;6.20;82.10
41437;DHT22;27178;49.460;10.850;2023-02-14T03:24:22;6.20;82.00
41437;DHT22;27178;49.460;10.850;2023-02-14T03:26:57;6.20;82.00
41437;DHT22;27178;49.460;10.850;2023-02-14T03:29:32;6.20;82.00
41437;DHT22;27178;49.460;10.850;2023-02-14T03:32:11;6.20;82.00
41437;DHT22;27178;49.460;10.850;2023-02-14T03:34:47;6.20;82.00
41437;DHT22;27178;49.460;10.850;2023-02-14T03:37:23;6.20;82.10
41437;DHT22;27178;49.460;10.850;2023-02-14T03:40:00;6.20;83.00
41437;DHT22;27178;49.460;10.850;2023-02-14T03:42:34;6.20;82.10
41437;DHT22;27178;49.460;10.850;2023-02-14T03:45:07;6.20;82.10
41437;DHT22;27178;49.460;10.850;2023-02-14T03:47:36;6.20;82.00
41437;DHT22;27178;49.460;10.850;2023-02-14T03:50:09;6.20;82.00
41437;DHT22;27178;49.460;10.850;2023-02-14T03:52:40;6.20;82.10
41437;DHT22;27178;49.460;10.850;2023-02-14T03:55:14;6.20;82.10
41437;DHT22;27178;49.460;10.850;2023-02-14T03:57:50;6.20;82.10
41437;DHT22;27178;49.460;10.850;2023-02-14T04:00:20;6.20;82.10
41437;DHT22;27178;49.460;10.850;2023-02-14T04:02:53;6.10;81.90
41437;DHT22;27178;49.460;10.850;2023-02-14T04:05:25;6.10;81.90
41437;DHT22;27178;49.460;10.850;2023-02-14T04:07:56;6.10;81.90
41437;DHT22;27178;49.460;10.850;2023-02-14T04:10:26;6.10;81.70
41437;DHT22;27178;49.460;10.850;2023-02-14T04:12:55;6.10;81.70
41437;DHT22;27178;49.460;10.850;2023-02-14T04:15:23;6.10;81.80
41437;DHT22;27178;49.460;10.850;2023-02-14T04:17:52;6.10;82.00
41437;DHT22;27178;49.460;10.850;2023-02-14T04:20:42;6.10;82.10
41437;DHT22;27178;49.460;10.850;2023-02-14T04:23:11;6.00;81.90
41437;DHT22;27178;49.460;10.850;2023-02-14T04:25:41;6.10;82.00
41437;DHT22;27178;49.460;10.850;2023-02-14T04:28:11;6.10;82.10
41437;DHT22;27178;49.460;10.850;2023-02-14T04:30:40;6.00;82.00
41437;DHT22;27178;49.460;10.850;2023-02-14T04:33:08;6.10;82.10
41437;DHT22;27178;49.460;10.850;2023-02-14T04:35:37;6.00;82.00
41437;DHT22;27178;49.460;10.850;2023-02-14T04:38:05;6.00;82.00
41437;DHT22;27178;49.460;10.850;2023-02-14T04:40:33;6.00;82.10
41437;DHT22;27178;49.460;10.850;2023-02-14T04:43:03;6.00;82.10
41437;DHT22;27178;49.460;10.850;2023-02-14T04:45:33;6.00;82.30
41437;DHT22;27178;49.460;10.850;2023-02-14T04:48:02;6.00;82.30
41437;DHT22;27178;49.460;10.850;2023-02-14T04:50:30;6.00;82.30
41437;DHT22;27178;49.460;10.850;2023-02-14T04:52:59;6.00;82.30
41437;DHT22;27178;49.460;10.850;2023-02-14T04:55:27;6.00;82.30
41437;DHT22;27178;49.460;10.850;2023-02-14T04:57:56;5.90;82.30
41437;DHT22;27178;49.460;10.850;2023-02-14T05:00:25;5.90;82.30
41437;DHT22;27178;49.460;10.850;2023-02-14T05:02:54;5.90;82.30
41437;DHT22;27178;49.460;10.850;2023-02-14T05:05:22;5.90;82.30
41437;DHT22;27178;49.460;10.850;2023-02-14T05:07:51;5.90;82.30
41437;DHT22;27178;49.460;10.850;2023-02-14T05:10:19;5.90;82.30
41437;DHT22;27178;49.460;10.850;2023-02-14T05:12:48;5.80;82.30
41437;DHT22;27178;49.460;10.850;2023-02-14T05:15:16;5.80;82.20
41437;DHT22;27178;49.460;10.850;2023-02-14T05:17:46;5.80;82.40
41437;DHT22;27178;49.460;10.850;2023-02-14T05:20:14;5.80;82.60
41437;DHT22;27178;49.460;10.850;2023-02-14T05:22:43;5.80;82.60
41437;DHT22;27178;49.460;10.850;2023-02-14T05:25:11;5.80;82.60
41437;DHT22;27178;49.460;10.850;2023-02-14T05:27:39;5.80;82.60
41437;DHT22;27178;49.460;10.850;2023-02-14T05:30:09;5.80;82.70
41437;DHT22;27178;49.460;10.850;2023-02-14T05:32:38;5.80;83.00
41437;DHT22;27178;49.460;10.850;2023-02-14T05:35:08;5.80;82.90
41437;DHT22;27178;49.460;10.850;2023-02-14T05:37:36;5.80;82.80
41437;DHT22;27178;49.460;10.850;2023-02-14T05:40:06;5.80;82.70
41437;DHT22;27178;49.460;10.850;2023-02-14T05:42:35;5.80;82.90
41437;DHT22;27178;49.460;10.850;2023-02-14T05:45:04;5.80;82.80
41437;DHT22;27178;49.460;10.850;2023-02-14T05:47:32;5.70;82.70
41437;DHT22;27178;49.460;10.850;2023-02-14T05:50:00;5.80;82.70
41437;DHT22;27178;49.460;10.850;2023-02-14T05:52:31;5.70;82.50
41437;DHT22;27178;49.460;10.850;2023-02-14T05:54:59;5.70;82.60
41437;DHT22;27178;49.460;10.850;2023-02-14T05:57:27;5.70;82.60
41437;DHT22;27178;49.460;10.850;2023-02-14T05:59:56;5.70;82.70
41437;DHT22;27178;49.460;10.850;2023-02-14T06:02:24;5.70;82.70
41437;DHT22;27178;49.460;10.850;2023-02-14T06:04:53;5.70;82.80
41437;DHT22;27178;49.460;10.850;2023-02-14T06:07:22;5.60;82.80
41437;DHT22;27178;49.460;10.850;2023-02-14T06:09:51;5.60;82.80
41437;DHT22;27178;49.460;10.850;2023-02-14T06:12:19;5.60;82.70
41437;DHT22;27178;49.460;10.850;2023-02-14T06:14:48;5.60;82.80
41437;DHT22;27178;49.460;10.850;2023-02-14T06:17:16;5.60;82.90
41437;DHT22;27178;49.460;10.850;2023-02-14T06:19:45;5.60;83.10
41437;DHT22;27178;49.460;10.850;2023-02-14T06:22:14;5.60;83.20
41437;DHT22;27178;49.460;10.850;2023-02-14T06:24:42;5.60;83.20
41437;DHT22;27178;49.460;10.850;2023-02-14T06:27:12;5.50;83.20
41437;DHT22;27178;49.460;10.850;2023-02-14T06:29:40;5.50;83.30
41437;DHT22;27178;49.460;10.850;2023-02-14T06:32:10;5.50;83.30
41437;DHT22;27178;49.460;10.850;2023-02-14T06:34:39;5.50;83.50
41437;DHT22;27178;49.460;10.850;2023-02-14T06:37:07;5.50;83.50
41437;DHT22;27178;49.460;10.850;2023-02-14T06:39:35;5.50;83.50
41437;DHT22;27178;49.460;10.850;2023-02-14T06:42:04;4.10;82.50
41437;DHT22;27178;49.460;10.850;2023-02-14T06:44:34;5.50;83.40
41437;DHT22;27178;49.460;10.850;2023-02-14T06:47:02;5.50;83.40
41437;DHT22;27178;49.460;10.850;2023-02-14T06:49:31;5.50;83.50
41437;DHT22;27178;49.460;10.850;2023-02-14T06:52:00;5.50;83.40
41437;DHT22;27178;49.460;10.850;2023-02-14T06:54:28;5.50;83.50
41437;DHT22;27178;49.460;10.850;2023-02-14T06:56:57;5.40;83.40
41437;DHT22;27178;49.460;10.850;2023-02-14T06:59:25;5.50;83.70
41437;DHT22;27178;49.460;10.850;2023-02-14T07:01:54;5.40;83.70
41437;DHT22;27178;49.460;10.850;2023-02-14T07:04:23;5.40;83.70
41437;DHT22;27178;49.460;10.850;2023-02-14T07:06:51;5.50;83.80
41437;DHT22;27178;49.460;10.850;2023-02-14T07:09:19;5.40;83.70
41437;DHT22;27178;49.460;10.850;2023-02-14T07:11:47;5.50;83.60
41437;DHT22;27178;49.460;10.850;2023-02-14T07:14:15;5.50;83.60
41437;DHT22;27178;49.460;10.850;2023-02-14T07:16:43;5.50;83.60
41437;DHT22;27178;49.460;10.850;2023-02-14T07:19:13;5.40;83.50
41437;DHT22;27178;49.460;10.850;2023-02-14T07:21:41;5.40;83.70
41437;DHT22;27178;49.460;10.850;2023-02-14T07:24:10;5.40;83.60
41437;DHT22;27178;49.460;10.850;2023-02-14T07:26:38;5.40;83.90
41437;DHT22;27178;49.460;10.850;2023-02-14T07:29:06;5.40;83.90
41437;DHT22;27178;49.460;10.850;2023-02-14T07:31:34;5.40;83.90
41437;DHT22;27178;49.460;10.850;2023-02-14T07:34:03;5.40;83.90
41437;DHT22;27178;49.460;10.850;2023-02-14T07:36:32;5.40;84.20
41437;DHT22;27178;49.460;10.850;2023-02-14T07:39:01;5.40;84.30
41437;DHT22;27178;49.460;10.850;2023-02-14T07:41:29;5.40;84.20
41437;DHT22;27178;49.460;10.850;2023-02-14T07:43:57;5.30;84.20
41437;DHT22;27178;49.460;10.850;2023-02-14T07:46:26;5.40;84.20
41437;DHT22;27178;49.460;10.850;2023-02-14T07:48:54;5.40;84.30
41437;DHT22;27178;49.460;10.850;2023-02-14T07:51:23;5.40;84.30
41437;DHT22;27178;49.460;10.850;2023-02-14T07:53:53;5.40;84.40
41437;DHT22;27178;49.460;10.850;2023-02-14T07:56:21;5.40;84.50
41437;DHT22;27178;49.460;10.850;2023-02-14T07:58:49;5.40;84.50
41437;DHT22;27178;49.460;10.850;2023-02-14T08:01:18;5.50;84.50
41437;DHT22;27178;49.460;10.850;2023-02-14T08:03:46;5.50;84.50
41437;DHT22;27178;49.460;10.850;2023-02-14T08:06:16;5.50;84.70
41437;DHT22;27178;49.460;10.850;2023-02-14T08:08:45;5.50;84.70
41437;DHT22;27178;49.460;10.850;2023-02-14T08:11:15;5.50;84.70
41437;DHT22;27178;49.460;10.850;2023-02-14T08:14:03;5.50;84.70
41437;DHT22;27178;49.460;10.850;2023-02-14T08:16:32;5.50;84.70
41437;DHT22;27178;49.460;10.850;2023-02-14T08:19:00;5.50;84.50
41437;DHT22;27178;49.460;10.850;2023-02-14T08:21:29;5.50;84.60
41437;DHT22;27178;49.460;10.850;2023-02-14T08:23:57;5.50;84.60
41437;DHT22;27178;49.460;10.850;2023-02-14T08:26:28;5.50;84.60
41437;DHT22;27178;49.460;10.850;2023-02-14T08:28:56;5.50;84.50
41437;DHT22;27178;49.460;10.850;2023-02-14T08:31:26;5.50;84.60
41437;DHT22;27178;49.460;10.850;2023-02-14T08:34:02;5.50;84.70
41437;DHT22;27178;49.460;10.850;2023-02-14T08:36:30;5.50;84.80
41437;DHT22;27178;49.460;10.850;2023-02-14T08:38:59;5.50;84.70
41437;DHT22;27178;49.460;10.850;2023-02-14T08:41:29;5.50;84.70
41437;DHT22;27178;49.460;10.850;2023-02-14T08:43:58;5.60;84.90
41437;DHT22;27178;49.460;10.850;2023-02-14T08:46:27;5.60;85.00
41437;DHT22;27178;49.460;10.850;2023-02-14T08:48:55;5.60;85.00
41437;DHT22;27178;49.460;10.850;2023-02-14T08:51:24;5.60;85.00
41437;DHT22;27178;49.460;10.850;2023-02-14T08:53:52;5.70;85.10
41437;DHT22;27178;49.460;10.850;2023-02-14T08:56:22;5.70;85.00
41437;DHT22;27178;49.460;10.850;2023-02-14T08:58:52;5.70;85.00
41437;DHT22;27178;49.460;10.850;2023-02-14T09:01:21;5.70;85.00
41437;DHT22;27178;49.460;10.850;2023-02-14T09:03:50;5.70;84.80
41437;DHT22;27178;49.460;10.850;2023-02-14T09:06:18;5.70;84.80
41437;DHT22;27178;49.460;10.850;2023-02-14T09:08:47;5.70;85.00
41437;DHT22;27178;49.460;10.850;2023-02-14T09:11:17;5.70;84.90
41437;DHT22;27178;49.460;10.850;2023-02-14T09:13:48;5.70;84.90
41437;DHT22;27178;49.460;10.850;2023-02-14T09:16:19;5.80;85.80
41437;DHT22;27178;49.460;10.850;2023-02-14T09:18:48;5.80;85.10
41437;DHT22;27178;49.460;10.850;2023-02-14T09:21:19;5.80;85.00
41437;DHT22;27178;49.460;10.850;2023-02-14T09:23:47;5.80;84.90
41437;DHT22;27178;49.460;10.850;2023-02-14T09:26:16;5.80;84.80
41437;DHT22;27178;49.460;10.850;2023-02-14T09:28:45;5.80;84.70
41437;DHT22;27178;49.460;10.850;2023-02-14T09:31:15;5.90;84.70
41437;DHT22;27178;49.460;10.850;2023-02-14T09:33:47;5.90;84.80
41437;DHT22;27178;49.460;10.850;2023-02-14T09:36:33;5.90;84.90
41437;DHT22;27178;49.460;10.850;2023-02-14T09:39:19;5.90;84.90
41437;DHT22;27178;49.460;10.850;2023-02-14T09:42:03;5.90;84.90
41437;DHT22;27178;49.460;10.850;2023-02-14T09:44:38;5.90;85.10
41437;DHT22;27178;49.460;10.850;2023-02-14T09:47:16;6.00;85.10
41437;DHT22;27178;49.460;10.850;2023-02-14T09:49:48;6.00;85.10
41437;DHT22;27178;49.460;10.850;2023-02-14T09:52:20;6.00;85.00
41437;DHT22;27178;49.460;10.850;2023-02-14T09:54:54;6.00;84.70
41437;DHT22;27178;49.460;10.850;2023-02-14T09:57:29;6.10;84.80
41437;DHT22;27178;49.460;10.850;2023-02-14T10:00:06;6.10;84.80
41437;DHT22;27178;49.460;10.850;2023-02-14T10:02:47;6.10;85.00
41437;DHT22;27178;49.460;10.850;2023-02-14T10:05:22;6.10;84.80
41437;DHT22;27178;49.460;10.850;2023-02-14T10:08:02;6.10;84.70
41437;DHT22;27178;49.460;10.850;2023-02-14T10:10:37;6.10;84.70
41437;DHT22;27178;49.460;10.850;2023-02-14T10:13:14;6.20;84.80
41437;DHT22;27178;49.460;10.850;2023-02-14T10:15:46;6.20;84.90
41437;DHT22;27178;49.460;10.850;2023-02-14T10:18:19;6.20;84.80
41437;DHT22;27178;49.460;10.850;2023-02-14T10:20:52;6.30;84.90
41437;DHT22;27178;49.460;10.850;2023-02-14T10:23:28;6.30;84.70
41437;DHT22;27178;49.460;10.850;2023-02-14T10:26:00;6.30;84.70
41437;DHT22;27178;49.460;10.850;2023-02-14T10:28:34;6.30;84.70
41437;DHT22;27178;49.460;10.850;2023-02-14T10:31:21;6.30;84.70
41437;DHT22;27178;49.460;10.850;2023-02-14T10:33:55;6.40;84.70
41437;DHT22;27178;49.460;10.850;2023-02-14T10:36:39;6.40;84.70
41437;DHT22;27178;49.460;10.850;2023-02-14T10:39:23;6.40;84.60
41437;DHT22;27178;49.460;10.850;2023-02-14T10:42:01;6.40;84.50
41437;DHT22;27178;49.460;10.850;2023-02-14T10:44:40;6.50;84.40
41437;DHT22;27178;49.460;10.850;2023-02-14T10:47:18;6.50;84.10
41437;DHT22;27178;49.460;10.850;2023-02-14T10:49:55;6.50;84.10
41437;DHT22;27178;49.460;10.850;2023-02-14T10:52:33;6.60;84.10
41437;DHT22;27178;49.460;10.850;2023-02-14T10:55:11;6.60;84.10
41437;DHT22;27178;49.460;10.850;2023-02-14T10:57:58;6.60;84.10
41437;DHT22;27178;49.460;10.850;2023-02-14T11:00:32;6.60;84.10
41437;DHT22;27178;49.460;10.850;2023-02-14T11:03:05;6.60;84.10
41437;DHT22;27178;49.460;10.850;2023-02-14T11:05:37;6.60;84.00
41437;DHT22;27178;49.460;10.850;2023-02-14T11:08:16;6.60;83.90
41437;DHT22;27178;49.460;10.850;2023-02-14T11:10:46;6.60;84.10
41437;DHT22;27178;49.460;10.850;2023-02-14T11:13:33;6.70;84.00
41437;DHT22;27178;49.460;10.850;2023-02-14T11:16:03;6.70;84.20
41437;DHT22;27178;49.460;10.850;2023-02-14T11:18:32;6.70;84.00
41437;DHT22;27178;49.460;10.850;2023-02-14T11:21:05;6.70;84.20
41437;DHT22;27178;49.460;10.850;2023-02-14T11:23:37;6.80;84.30
41437;DHT22;27178;49.460;10.850;2023-02-14T11:26:10;6.80;84.20
41437;DHT22;27178;49.460;10.850;2023-02-14T11:28:49;6.80;84.20
41437;DHT22;27178;49.460;10.850;2023-02-14T11:31:36;6.90;84.20
41437;DHT22;27178;49.460;10.850;2023-02-14T11:34:22;6.90;83.90
41437;DHT22;27178;49.460;10.850;2023-02-14T11:36:51;6.90;83.70
41437;DHT22;27178;49.460;10.850;2023-02-14T11:39:27;7.00;83.60
41437;DHT22;27178;49.460;10.850;2023-02-14T11:41:58;6.90;84.00
41437;DHT22;27178;49.460;10.850;2023-02-14T11:44:29;6.90;83.50
41437;DHT22;27178;49.460;10.850;2023-02-14T11:47:17;6.90;83.50
41437;DHT22;27178;49.460;10.850;2023-02-14T11:49:56;7.00;83.60
41437;DHT22;27178;49.460;10.850;2023-02-14T11:52:27;7.00;83.60
41437;DHT22;27178;49.460;10.850;2023-02-14T11:54:58;7.00;83.60
41437;DHT22;27178;49.460;10.850;2023-02-14T11:57:28;7.00;83.70
41437;DHT22;27178;49.460;10.850;2023-02-14T12:00:00;7.10;83.90
41437;DHT22;27178;49.460;10.850;2023-02-14T12:02:37;7.00;83.70
41437;DHT22;27178;49.460;10.850;2023-02-14T12:05:16;7.10;83.70
41437;DHT22;27178;49.460;10.850;2023-02-14T12:07:47;7.10;83.70
41437;DHT22;27178;49.460;10.850;2023-02-14T12:10:22;7.10;83.70
41437;DHT22;27178;49.460;10.850;2023-02-14T12:13:03;7.10;83.70
41437;DHT22;27178;49.460;10.850;2023-02-14T12:15:34;7.10;83.70
41437;DHT22;27178;49.460;10.850;2023-02-14T12:21:22;7.20;83.70
41437;DHT22;27178;49.460;10.850;2023-02-14T12:23:58;7.20;83.60
41437;DHT22;27178;49.460;10.850;2023-02-14T12:26:34;7.30;83.70
41437;DHT22;27178;49.460;10.850;2023-02-14T12:29:13;7.30;83.30
41437;DHT22;27178;49.460;10.850;2023-02-14T12:31:44;7.30;83.10
41437;DHT22;27178;49.460;10.850;2023-02-14T12:34:14;7.30;83.10
41437;DHT22;27178;49.460;10.850;2023-02-14T12:37:07;7.30;83.10
41437;DHT22;27178;49.460;10.850;2023-02-14T12:39:52;7.30;83.20
41437;DHT22;27178;49.460;10.850;2023-02-14T12:42:34;7.30;83.30
41437;DHT22;27178;49.460;10.850;2023-02-14T12:45:13;7.30;83.30
41437;DHT22;27178;49.460;10.850;2023-02-14T12:47:51;7.30;83.30
41437;DHT22;27178;49.460;10.850;2023-02-14T12:50:34;7.30;83.40
41437;DHT22;27178;49.460;10.850;2023-02-14T12:53:25;7.30;83.50
41437;DHT22;27178;49.460;10.850;2023-02-14T12:56:02;7.40;83.50
41437;DHT22;27178;49.460;10.850;2023-02-14T12:58:44;7.40;83.30
41437;DHT22;27178;49.460;10.850;2023-02-14T13:01:46;7.40;83.10
41437;DHT22;27178;49.460;10.850;2023-02-14T13:04:33;7.50;83.20
41437;DHT22;27178;49.460;10.850;2023-02-14T13:07:13;7.50;83.10
41437;DHT22;27178;49.460;10.850;2023-02-14T13:09:48;7.50;83.00
41437;DHT22;27178;49.460;10.850;2023-02-14T13:12:31;7.50;82.80
41437;DHT22;27178;49.460;10.850;2023-02-14T13:15:14;7.50;82.70
41437;DHT22;27178;49.460;10.850;2023-02-14T13:17:49;7.60;82.60
41437;DHT22;27178;49.460;10.850;2023-02-14T13:20:39;7.50;82.30
41437;DHT22;27178;49.460;10.850;2023-02-14T13:23:13;7.50;82.30
41437;DHT22;27178;49.460;10.850;2023-02-14T13:25:45;7.50;82.30
41437;DHT22;27178;49.460;10.850;2023-02-14T13:28:16;7.50;82.40
41437;DHT22;27178;49.460;10.850;2023-02-14T13:30:47;7.50;82.50
41437;DHT22;27178;49.460;10.850;2023-02-14T13:33:28;7.50;82.30
41437;DHT22;27178;49.460;10.850;2023-02-14T13:36:02;7.50;82.40
41437;DHT22;27178;49.460;10.850;2023-02-14T13:38:43;7.50;82.50
41437;DHT22;27178;49.460;10.850;2023-02-14T13:41:13;7.50;82.50
41437;DHT22;27178;49.460;10.850;2023-02-14T13:43:51;7.60;82.50
41437;DHT22;27178;49.460;10.850;2023-02-14T13:46:49;7.60;82.40
41437;DHT22;27178;49.460;10.850;2023-02-14T13:49:24;7.60;82.50
41437;DHT22;27178;49.460;10.850;2023-02-14T13:51:54;7.60;82.50
41437;DHT22;27178;49.460;10.850;2023-02-14T13:54:33;7.60;82.50
41437;DHT22;27178;49.460;10.850;2023-02-14T13:57:27;8.60;83.10
41437;DHT22;27178;49.460;10.850;2023-02-14T14:03:12;7.70;82.10
41437;DHT22;27178;49.460;10.850;2023-02-14T14:06:02;7.70;82.00
41437;DHT22;27178;49.460;10.850;2023-02-14T14:14:32;7.70;81.80
41437;DHT22;27178;49.460;10.850;2023-02-14T14:17:19;7.70;81.80
41437;DHT22;27178;49.460;10.850;2023-02-14T14:19:50;7.70;81.80
41437;DHT22;27178;49.460;10.850;2023-02-14T14:22:19;7.70;81.80
41437;DHT22;27178;49.460;10.850;2023-02-14T14:24:56;7.70;81.70
41437;DHT22;27178;49.460;10.850;2023-02-14T14:27:28;7.70;81.70
41437;DHT22;27178;49.460;10.850;2023-02-14T14:29:58;7.70;81.80
41437;DHT22;27178;49.460;10.850;2023-02-14T14:32:29;7.70;81.80
41437;DHT22;27178;49.460;10.850;2023-02-14T14:35:01;7.70;81.80
41437;DHT22;27178;49.460;10.850;2023-02-14T14:37:32;7.70;81.90
41437;DHT22;27178;49.460;10.850;2023-02-14T14:40:03;7.70;81.90
41437;DHT22;27178;49.460;10.850;2023-02-14T14:42:34;7.70;81.80
41437;DHT22;27178;49.460;10.850;2023-02-14T14:45:06;7.70;81.70
41437;DHT22;27178;49.460;10.850;2023-02-14T14:47:40;7.70;81.60
41437;DHT22;27178;49.460;10.850;2023-02-14T14:50:16;7.70;81.60
41437;DHT22;27178;49.460;10.850;2023-02-14T14:52:48;7.70;81.70
41437;DHT22;27178;49.460;10.850;2023-02-14T14:55:19;7.70;81.80
41437;DHT22;27178;49.460;10.850;2023-02-14T14:57:50;7.80;81.80
41437;DHT22;27178;49.460;10.850;2023-02-14T15:00:22;7.80;81.60
41437;DHT22;27178;49.460;10.850;2023-02-14T15:03:04;7.80;81.50
41437;DHT22;27178;49.460;10.850;2023-02-14T15:05:37;7.80;81.40
41437;DHT22;27178;49.460;10.850;2023-02-14T15:08:19;7.80;81.50
41437;DHT22;27178;49.460;10.850;2023-02-14T15:10:50;7.80;81.50
41437;DHT22;27178;49.460;10.850;2023-02-14T15:13:26;7.80;81.50
41437;DHT22;27178;49.460;10.850;2023-02-14T15:16:23;7.80;81.60
41437;DHT22;27178;49.460;10.850;2023-02-14T15:18:54;7.80;81.40
41437;DHT22;27178;49.460;10.850;2023-02-14T15:21:26;7.80;81.60
41437;DHT22;27178;49.460;10.850;2023-02-14T15:23:55;7.90;81.60
41437;DHT22;27178;49.460;10.850;2023-02-14T15:26:27;7.80;81.60
41437;DHT22;27178;49.460;10.850;2023-02-14T15:28:58;7.80;81.40
41437;DHT22;27178;49.460;10.850;2023-02-14T15:31:33;7.80;81.40
41437;DHT22;27178;49.460;10.850;2023-02-14T15:34:03;7.90;81.30
41437;DHT22;27178;49.460;10.850;2023-02-14T15:36:33;7.90;81.20
41437;DHT22;27178;49.460;10.850;2023-02-14T15:39:04;7.90;81.30
41437;DHT22;27178;49.460;10.850;2023-02-14T15:41:34;7.90;81.30
41437;DHT22;27178;49.460;10.850;2023-02-14T15:44:03;7.90;81.10
41437;DHT22;27178;49.460;10.850;2023-02-14T15:46:34;7.90;81.00
41437;DHT22;27178;49.460;10.850;2023-02-14T15:49:08;7.90;80.70
41437;DHT22;27178;49.460;10.850;2023-02-14T15:51:39;7.90;80.60
41437;DHT22;27178;49.460;10.850;2023-02-14T15:54:19;7.80;80.30
41437;DHT22;27178;49.460;10.850;2023-02-14T15:56:50;7.80;80.10
41437;DHT22;27178;49.460;10.850;2023-02-14T15:59:21;7.70;80.10
41437;DHT22;27178;49.460;10.850;2023-02-14T16:01:54;7.70;80.00
41437;DHT22;27178;49.460;10.850;2023-02-14T16:04:25;7.60;79.90
41437;DHT22;27178;49.460;10.850;2023-02-14T16:07:18;7.50;79.90
41437;DHT22;27178;49.460;10.850;2023-02-14T16:09:48;7.50;79.80
41437;DHT22;27178;49.460;10.850;2023-02-14T16:12:35;8.70;80.70
41437;DHT22;27178;49.460;10.850;2023-02-14T16:15:15;7.30;79.70
41437;DHT22;27178;49.460;10.850;2023-02-14T16:17:45;7.30;79.80
41437;DHT22;27178;49.460;10.850;2023-02-14T16:20:29;7.20;79.60
41437;DHT22;27178;49.460;10.850;2023-02-14T16:23:24;7.10;79.60
41437;DHT22;27178;49.460;10.850;2023-02-14T16:25:53;7.10;79.80
41437;DHT22;27178;49.460;10.850;2023-02-14T16:28:27;7.00;79.80
41437;DHT22;27178;49.460;10.850;2023-02-14T16:30:57;6.90;79.80
41437;DHT22;27178;49.460;10.850;2023-02-14T16:33:28;6.90;79.80
41437;DHT22;27178;49.460;10.850;2023-02-14T16:36:02;6.80;79.90